createdAt,value
2023-01-04T00:00:01.086Z,16.83
2023-01-04T00:01:05.882Z,9.95
2023-01-04T00:02:08.789Z,12.85
2023-01-04T00:03:12.171Z,11.07
2023-01-04T00:04:14.936Z,19.27
2023-01-04T00:05:17.695Z,16.65
2023-01-04T00:06:21.061Z,12.95
2023-01-04T00:07:23.814Z,12.68
2023-01-04T00:08:26.656Z,14.75
2023-01-04T00:09:29.611Z,10.57
2023-01-04T00:10:32.357Z,13.32
2023-01-04T00:11:35.192Z,13.75
2023-01-04T00:12:37.915Z,10.82
2023-01-04T00:13:40.785Z,11.38
2023-01-04T00:14:43.675Z,12.77
2023-01-04T00:15:46.491Z,13.50
2023-01-04T00:16:49.314Z,13.15
2023-01-04T00:17:52.092Z,10.70
2023-01-04T00:18:55.675Z,11.93
2023-01-04T00:19:58.399Z,12.60
2023-01-04T00:21:12.613Z,16.20
2023-01-04T00:22:15.403Z,14.25
2023-01-04T00:23:18.206Z,13.05
2023-01-04T00:24:21.067Z,13.38
2023-01-04T00:25:23.851Z,18.73
2023-01-04T00:26:29.764Z,16.05
2023-01-04T00:27:33.274Z,17.23
2023-01-04T00:28:36.217Z,11.95
2023-01-04T00:29:38.881Z,13.25
2023-01-04T00:30:41.756Z,14.43
2023-01-04T00:31:45.424Z,17.30
2023-01-04T00:32:48.234Z,16.73
2023-01-04T00:33:54.979Z,13.43
2023-01-04T00:34:57.772Z,17.10
2023-01-04T00:36:05.310Z,13.60
2023-01-04T00:37:08.235Z,15.02
2023-01-04T00:38:11.001Z,13.20
2023-01-04T00:39:15.705Z,12.57
2023-01-04T00:40:18.517Z,18.05
2023-01-04T00:41:49.265Z,23.40
2023-01-04T00:42:44.120Z,14.65
2023-01-04T00:43:46.857Z,15.60
2023-01-04T00:44:49.683Z,13.57
2023-01-04T00:45:52.561Z,16.40
2023-01-04T00:46:55.419Z,13.95
2023-01-04T00:47:58.151Z,13.00
2023-01-04T00:49:01.653Z,22.73
2023-01-04T00:50:04.774Z,16.17
2023-01-04T00:51:07.665Z,14.80
2023-01-04T00:52:10.405Z,15.07
2023-01-04T00:53:13.947Z,18.42
2023-01-04T00:54:17.107Z,17.10
2023-01-04T00:55:20.083Z,25.80
2023-01-04T00:56:22.900Z,14.00
2023-01-04T00:57:25.659Z,17.70
2023-01-04T00:58:28.373Z,16.23
2023-01-04T00:59:31.503Z,16.50
2023-01-04T01:00:35.133Z,15.65
2023-01-04T01:01:38.134Z,17.00
2023-01-04T01:02:41.273Z,16.48
2023-01-04T01:03:44.632Z,15.55
2023-01-04T01:04:47.766Z,17.35
2023-01-04T01:05:50.448Z,14.27
2023-01-04T01:06:53.549Z,15.73
2023-01-04T01:07:56.865Z,18.67
2023-01-04T01:09:00.183Z,15.50
2023-01-04T01:10:03.115Z,18.75
2023-01-04T01:11:08.730Z,21.92
2023-01-04T01:12:11.573Z,15.55
2023-01-04T01:13:14.510Z,13.45
2023-01-04T01:14:20.810Z,16.85
2023-01-04T01:15:23.492Z,20.92
2023-01-04T01:16:52.881Z,15.32
2023-01-04T01:17:49.996Z,21.80
2023-01-04T01:18:53.734Z,17.65
2023-01-04T01:19:56.434Z,17.27
2023-01-04T01:20:59.637Z,19.73
2023-01-04T01:22:02.379Z,17.75
2023-01-04T01:23:05.128Z,19.23
2023-01-04T01:24:16.320Z,17.73
2023-01-04T01:25:19.121Z,17.80
2023-01-04T01:26:24.183Z,15.88
2023-01-04T01:27:27.043Z,20.08
2023-01-04T01:28:30.057Z,18.85
2023-01-04T01:29:32.930Z,17.75
2023-01-04T01:30:40.680Z,16.17
2023-01-04T01:31:43.590Z,18.23
2023-01-04T01:32:46.341Z,17.77
2023-01-04T01:33:50.928Z,15.00
2023-01-04T01:34:53.711Z,13.27
2023-01-04T01:36:01.066Z,26.70
2023-01-04T01:37:03.888Z,16.48
2023-01-04T01:38:06.683Z,14.40
2023-01-04T01:39:09.440Z,19.27
2023-01-04T01:40:13.122Z,21.08
2023-01-04T01:41:27.626Z,15.48
2023-01-04T01:42:30.333Z,17.75
2023-01-04T01:43:55.261Z,18.60
2023-01-04T01:45:01.320Z,14.90
2023-01-04T01:46:04.173Z,17.98
2023-01-04T01:47:12.922Z,16.63
2023-01-04T01:48:20.998Z,15.90
2023-01-04T01:49:29.791Z,14.38
2023-01-04T01:50:45.940Z,18.73
2023-01-04T01:51:48.927Z,15.88
2023-01-04T01:52:52.440Z,16.30
2023-01-04T01:53:59.806Z,20.60
2023-01-04T01:55:05.643Z,17.00
2023-01-04T01:56:09.870Z,15.32
2023-01-04T01:57:16.166Z,15.70
2023-01-04T01:58:23.411Z,20.65
2023-01-04T01:59:26.768Z,14.25
2023-01-04T02:00:30.064Z,15.65
2023-01-04T02:01:33.671Z,15.20
2023-01-04T02:02:37.484Z,20.92
2023-01-04T02:03:42.486Z,15.95
2023-01-04T02:04:47.925Z,19.33
2023-01-04T02:05:53.551Z,17.08
2023-01-04T02:06:57.384Z,20.38
2023-01-04T02:08:00.992Z,16.73
2023-01-04T02:09:04.113Z,20.45
2023-01-04T02:10:07.404Z,17.08
2023-01-04T02:11:10.561Z,15.82
2023-01-04T02:12:14.059Z,22.58
2023-01-04T02:13:21.399Z,16.00
2023-01-04T02:14:27.068Z,19.88
2023-01-04T02:15:33.926Z,15.65
2023-01-04T02:17:13.041Z,17.38
2023-01-04T02:18:22.278Z,16.05
2023-01-04T02:19:55.480Z,17.00
2023-01-04T02:21:13.636Z,18.23
2023-01-04T02:22:16.362Z,18.15
2023-01-04T02:23:31.309Z,18.33
2023-01-04T02:24:43.251Z,16.33
2023-01-04T02:26:11.006Z,16.90
2023-01-04T02:27:38.445Z,15.30
2023-01-04T02:29:02.674Z,19.10
2023-01-04T02:30:11.379Z,16.80
2023-01-04T02:31:45.708Z,16.30
2023-01-04T02:32:59.903Z,15.68
2023-01-04T02:34:12.035Z,19.00
2023-01-04T02:35:31.808Z,19.10
2023-01-04T02:36:50.249Z,18.45
2023-01-04T02:38:11.491Z,17.00
2023-01-04T02:39:24.549Z,22.60
2023-01-04T02:40:42.586Z,18.83
2023-01-04T02:41:50.469Z,20.77
2023-01-04T02:43:27.029Z,17.88
2023-01-04T02:44:58.214Z,15.85
2023-01-04T02:46:12.372Z,18.15
2023-01-04T02:47:42.425Z,15.38
2023-01-04T02:49:03.786Z,16.30
2023-01-04T02:50:31.126Z,17.40
2023-01-04T02:51:36.269Z,23.13
2023-01-04T02:52:39.689Z,24.25
2023-01-04T02:53:42.659Z,17.13
2023-01-04T02:54:48.267Z,17.15
2023-01-04T02:56:17.796Z,21.98
2023-01-04T02:57:29.014Z,21.17
2023-01-04T02:58:50.103Z,17.70
2023-01-04T03:00:00.047Z,19.92
2023-01-04T03:01:21.368Z,26.30
2023-01-04T03:03:21.033Z,17.38
2023-01-04T03:04:57.757Z,18.52
2023-01-04T03:06:15.656Z,18.10
2023-01-04T03:07:33.069Z,18.52
2023-01-04T03:08:40.045Z,13.75
2023-01-04T03:09:47.871Z,21.77
2023-01-04T03:10:59.182Z,25.70
2023-01-04T03:12:27.556Z,21.35
2023-01-04T03:13:42.938Z,22.83
2023-01-04T03:14:52.053Z,21.95
2023-01-04T03:16:00.439Z,20.48
2023-01-04T03:17:07.370Z,21.00
2023-01-04T03:18:20.739Z,21.05
2023-01-04T03:19:47.847Z,18.90
2023-01-04T03:20:53.025Z,17.13
2023-01-04T03:21:55.729Z,16.98
2023-01-04T03:23:32.540Z,18.55
2023-01-04T03:25:10.748Z,16.25
2023-01-04T03:26:58.330Z,17.98
2023-01-04T03:28:19.945Z,19.20
2023-01-04T03:29:49.178Z,22.25
2023-01-04T03:31:19.329Z,23.48
2023-01-04T03:32:51.731Z,16.38
2023-01-04T03:34:17.876Z,19.55
2023-01-04T03:35:28.353Z,20.20
2023-01-04T03:36:49.168Z,20.63
2023-01-04T03:38:13.339Z,16.88
2023-01-04T03:39:40.074Z,22.30
2023-01-04T03:41:05.306Z,19.98
2023-01-04T03:42:50.248Z,22.15
2023-01-04T03:44:43.722Z,21.10
2023-01-04T03:46:13.155Z,21.67
2023-01-04T03:47:56.193Z,22.35
2023-01-04T03:49:05.358Z,19.15
2023-01-04T03:50:30.431Z,30.17
2023-01-04T03:51:37.055Z,25.63
2023-01-04T03:52:41.238Z,19.02
2023-01-04T03:54:15.964Z,21.15
2023-01-04T03:55:19.461Z,26.10
2023-01-04T03:56:23.394Z,27.48
2023-01-04T03:57:26.715Z,19.13
2023-01-04T03:58:29.467Z,21.45
2023-01-04T03:59:34.661Z,19.25
2023-01-04T04:00:37.633Z,23.30
2023-01-04T04:01:43.427Z,21.83
2023-01-04T04:02:47.810Z,24.48
2023-01-04T04:04:09.054Z,25.48
2023-01-04T04:05:36.607Z,21.95
2023-01-04T04:06:58.175Z,24.88
2023-01-04T04:08:19.431Z,25.15
2023-01-04T04:09:22.078Z,21.42
2023-01-04T04:10:25.031Z,22.80
2023-01-04T04:11:31.124Z,26.30
2023-01-04T04:12:33.814Z,21.50
2023-01-04T04:13:36.464Z,19.30
2023-01-04T04:14:39.232Z,22.20
2023-01-04T04:15:42.205Z,23.17
2023-01-04T04:16:45.153Z,24.35
2023-01-04T04:17:47.924Z,20.02
2023-01-04T04:18:50.674Z,21.85
2023-01-04T04:19:53.389Z,22.95
2023-01-04T04:20:59.294Z,24.45
2023-01-04T04:22:01.959Z,25.48
2023-01-04T04:23:04.761Z,23.63
2023-01-04T04:24:07.725Z,20.73
2023-01-04T04:25:10.573Z,22.52
2023-01-04T04:26:13.300Z,22.25
2023-01-04T04:27:16.112Z,27.33
2023-01-04T04:28:18.815Z,22.08
2023-01-04T04:29:22.704Z,24.20
2023-01-04T04:30:25.608Z,19.92
2023-01-04T04:31:28.467Z,25.63
2023-01-04T04:32:31.209Z,21.63
2023-01-04T04:33:33.966Z,31.10
2023-01-04T04:34:37.443Z,26.77
2023-01-04T04:35:40.174Z,25.08
2023-01-04T04:36:42.983Z,30.67
2023-01-04T04:37:45.895Z,29.00
2023-01-04T04:38:48.600Z,28.98
2023-01-04T04:39:51.337Z,24.98
2023-01-04T04:41:12.865Z,24.33
2023-01-04T04:42:15.730Z,28.65
2023-01-04T04:43:18.520Z,31.88
2023-01-04T04:44:21.429Z,22.33
2023-01-04T04:45:24.363Z,23.05
2023-01-04T04:46:27.487Z,30.50
2023-01-04T04:47:30.357Z,25.08
2023-01-04T04:48:33.851Z,31.10
2023-01-04T04:49:36.955Z,25.65
2023-01-04T04:50:39.693Z,29.20
2023-01-04T04:51:42.912Z,28.27
2023-01-04T04:52:48.400Z,24.58
2023-01-04T04:53:53.940Z,24.67
2023-01-04T04:54:56.771Z,27.80
2023-01-04T04:55:59.470Z,29.23
2023-01-04T04:57:02.310Z,24.77
2023-01-04T04:58:05.116Z,22.23
2023-01-04T04:59:07.935Z,25.98
2023-01-04T05:00:11.511Z,27.35
2023-01-04T05:01:14.448Z,24.05
2023-01-04T05:02:17.574Z,26.63
2023-01-04T05:03:20.549Z,24.00
2023-01-04T05:04:23.478Z,28.52
2023-01-04T05:05:26.580Z,29.27
2023-01-04T05:06:29.555Z,28.45
2023-01-04T05:07:32.262Z,21.20
2023-01-04T05:08:35.279Z,23.40
2023-01-04T05:09:38.048Z,25.38
2023-01-04T05:10:40.884Z,27.17
2023-01-04T05:12:01.777Z,29.55
2023-01-04T05:14:09.858Z,23.45
2023-01-04T05:15:12.662Z,29.63
2023-01-04T05:16:15.361Z,30.20
2023-01-04T05:17:18.097Z,44.38
2023-01-04T05:18:21.802Z,42.05
2023-01-04T05:19:24.654Z,38.03
2023-01-04T05:20:27.489Z,28.48
2023-01-04T05:21:30.212Z,19.80
2023-01-04T05:22:32.983Z,30.60
2023-01-04T05:23:35.862Z,30.35
2023-01-04T05:24:38.638Z,39.80
2023-01-04T05:25:41.595Z,33.20
2023-01-04T05:26:44.360Z,33.15
2023-01-04T05:27:47.115Z,51.20
2023-01-04T05:28:53.691Z,38.90
2023-01-04T05:30:15.311Z,32.45
2023-01-04T05:31:18.532Z,31.13
2023-01-04T05:32:21.326Z,31.13
2023-01-04T05:33:27.208Z,31.92
2023-01-04T05:34:30.005Z,32.80
2023-01-04T05:35:33.139Z,32.00
2023-01-04T05:36:35.946Z,38.60
2023-01-04T05:37:38.616Z,30.55
2023-01-04T05:38:41.346Z,23.73
2023-01-04T05:39:44.198Z,25.88
2023-01-04T05:40:47.310Z,24.35
2023-01-04T05:42:08.723Z,28.55
2023-01-04T05:43:13.182Z,26.02
2023-01-04T05:44:15.878Z,29.02
2023-01-04T05:45:22.333Z,25.60
2023-01-04T05:46:25.112Z,24.58
2023-01-04T05:47:28.863Z,31.63
2023-01-04T05:48:31.617Z,24.30
2023-01-04T05:49:34.403Z,26.92
2023-01-04T05:50:37.147Z,28.33
2023-01-04T05:51:40.209Z,30.08
2023-01-04T05:52:42.939Z,28.83
2023-01-04T05:53:45.838Z,24.27
2023-01-04T05:54:48.708Z,27.30
2023-01-04T05:55:51.491Z,30.85
2023-01-04T05:56:54.305Z,24.13
2023-01-04T05:57:57.029Z,23.45
2023-01-04T05:58:59.809Z,19.13
2023-01-04T06:00:03.152Z,24.10
2023-01-04T06:01:15.006Z,22.98
2023-01-04T06:02:25.773Z,21.42
2023-01-04T06:03:28.814Z,22.30
2023-01-04T06:04:31.552Z,24.20
2023-01-04T06:05:34.324Z,20.08
2023-01-04T06:06:37.067Z,23.08
2023-01-04T06:07:41.047Z,26.92
2023-01-04T06:08:43.829Z,21.48
2023-01-04T06:09:46.719Z,27.70
2023-01-04T06:10:55.373Z,21.58
2023-01-04T06:11:58.110Z,17.55
2023-01-04T06:13:00.894Z,25.60
2023-01-04T06:14:03.855Z,21.50
2023-01-04T06:15:07.900Z,23.83
2023-01-04T06:16:10.647Z,22.52
2023-01-04T06:17:13.589Z,27.23
2023-01-04T06:18:16.401Z,23.45
2023-01-04T06:19:19.238Z,24.73
2023-01-04T06:20:22.165Z,24.48
2023-01-04T06:21:25.503Z,24.02
2023-01-04T06:22:29.027Z,28.35
2023-01-04T06:23:31.788Z,23.45
2023-01-04T06:24:34.514Z,28.45
2023-01-04T06:25:37.918Z,22.73
2023-01-04T06:26:40.726Z,22.73
2023-01-04T06:27:43.480Z,33.65
2023-01-04T06:28:46.432Z,27.98
2023-01-04T06:29:49.278Z,26.40
2023-01-04T06:30:52.005Z,34.45
2023-01-04T06:31:55.443Z,32.45
2023-01-04T06:32:58.145Z,32.13
2023-01-04T06:34:01.409Z,30.30
2023-01-04T06:35:04.597Z,27.17
2023-01-04T06:36:07.683Z,33.97
2023-01-04T06:37:22.918Z,30.85
2023-01-04T06:38:25.765Z,27.48
2023-01-04T06:39:28.734Z,29.65
2023-01-04T06:40:31.491Z,26.70
2023-01-04T06:41:34.688Z,28.77
2023-01-04T06:42:46.372Z,23.85
2023-01-04T06:43:49.327Z,26.88
2023-01-04T06:44:52.000Z,26.70
2023-01-04T06:45:54.757Z,25.73
2023-01-04T06:46:58.074Z,31.00
2023-01-04T06:48:05.750Z,38.38
2023-01-04T06:50:14.477Z,25.85
2023-01-04T06:51:17.181Z,41.03
2023-01-04T06:52:20.161Z,31.20
2023-01-04T06:53:23.026Z,38.15
2023-01-04T06:54:25.871Z,32.85
2023-01-04T06:55:29.975Z,35.05
2023-01-04T06:56:33.684Z,27.95
2023-01-04T06:57:36.515Z,28.13
2023-01-04T06:58:39.334Z,32.53
2023-01-04T06:59:42.140Z,43.90
2023-01-04T07:00:46.431Z,35.92
2023-01-04T07:01:49.337Z,32.10
2023-01-04T07:03:13.632Z,36.97
2023-01-04T07:04:14.899Z,37.17
2023-01-04T07:05:18.114Z,33.38
2023-01-04T07:06:20.884Z,30.55
2023-01-04T07:07:23.725Z,29.25
2023-01-04T07:08:26.424Z,32.33
2023-01-04T07:09:29.169Z,27.88
2023-01-04T07:10:32.049Z,38.53
2023-01-04T07:11:34.786Z,28.58
2023-01-04T07:12:38.818Z,29.00
2023-01-04T07:13:41.602Z,28.77
2023-01-04T07:14:44.614Z,29.33
2023-01-04T07:15:47.515Z,39.33
2023-01-04T07:16:50.593Z,53.97
2023-01-04T07:17:53.728Z,43.72
2023-01-04T07:18:56.505Z,38.25
2023-01-04T07:19:59.652Z,35.75
2023-01-04T07:21:02.787Z,31.92
2023-01-04T07:22:05.533Z,35.50
2023-01-04T07:23:08.617Z,35.90
2023-01-04T07:24:11.532Z,28.02
2023-01-04T07:25:14.275Z,36.95
2023-01-04T07:26:17.147Z,33.85
2023-01-04T07:27:19.939Z,26.77
2023-01-04T07:28:41.097Z,28.20
2023-01-04T07:29:44.422Z,27.05
2023-01-04T07:30:47.196Z,29.88
2023-01-04T07:31:52.122Z,29.42
2023-01-04T07:32:55.916Z,28.67
2023-01-04T07:33:58.838Z,30.73
2023-01-04T07:35:01.566Z,29.52
2023-01-04T07:36:06.076Z,31.85
2023-01-04T07:37:13.135Z,36.35
2023-01-04T07:38:15.973Z,31.30
2023-01-04T07:39:19.521Z,36.92
2023-01-04T07:40:22.316Z,34.38
2023-01-04T07:41:25.106Z,32.58
2023-01-04T07:42:27.870Z,33.90
2023-01-04T07:43:30.871Z,27.75
2023-01-04T07:44:34.049Z,28.85
2023-01-04T07:45:39.668Z,33.72
2023-01-04T07:46:43.260Z,29.63
2023-01-04T07:47:46.574Z,28.58
2023-01-04T07:48:49.418Z,30.58
2023-01-04T07:49:52.168Z,29.90
2023-01-04T07:50:55.101Z,27.67
2023-01-04T07:51:57.967Z,28.30
2023-01-04T07:53:02.068Z,31.17
2023-01-04T07:54:05.043Z,23.92
2023-01-04T07:55:08.367Z,34.60
2023-01-04T07:56:15.246Z,30.88
2023-01-04T07:57:21.375Z,31.20
2023-01-04T07:58:24.560Z,32.75
2023-01-04T07:59:27.391Z,28.65
2023-01-04T08:00:30.157Z,27.13
2023-01-04T08:01:35.713Z,31.50
2023-01-04T08:02:38.923Z,38.95
2023-01-04T08:03:42.321Z,32.88
2023-01-04T08:04:45.214Z,34.50
2023-01-04T08:05:48.177Z,34.10
2023-01-04T08:06:51.016Z,36.50
2023-01-04T08:07:53.936Z,36.78
2023-01-04T08:08:56.735Z,31.02
2023-01-04T08:09:59.689Z,38.08
2023-01-04T08:11:03.883Z,31.98
2023-01-04T08:12:06.676Z,37.92
2023-01-04T08:13:09.636Z,38.42
2023-01-04T08:14:12.723Z,35.25
2023-01-04T08:15:15.706Z,40.17
2023-01-04T08:16:22.669Z,32.35
2023-01-04T08:17:25.459Z,29.98
2023-01-04T08:18:28.422Z,36.40
2023-01-04T08:19:31.356Z,36.58
2023-01-04T08:20:34.074Z,38.80
2023-01-04T08:21:36.979Z,36.22
2023-01-04T08:22:39.749Z,37.28
2023-01-04T08:23:42.511Z,35.80
2023-01-04T08:24:45.217Z,33.35
2023-01-04T08:25:47.937Z,34.42
2023-01-04T08:26:50.732Z,34.55
2023-01-04T08:27:53.454Z,29.63
2023-01-04T08:28:56.723Z,33.80
2023-01-04T08:29:59.629Z,32.85
2023-01-04T08:31:29.532Z,39.85
2023-01-04T08:32:32.347Z,35.30
2023-01-04T08:33:37.291Z,36.53
2023-01-04T08:34:40.315Z,25.75
2023-01-04T08:35:43.166Z,30.02
2023-01-04T08:36:50.907Z,32.28
2023-01-04T08:37:53.722Z,30.45
2023-01-04T08:39:06.117Z,31.55
2023-01-04T08:40:09.647Z,35.97
2023-01-04T08:41:31.283Z,42.38
2023-01-04T08:42:35.439Z,33.60
2023-01-04T08:43:38.609Z,32.65
2023-01-04T08:44:41.370Z,33.95
2023-01-04T08:45:44.224Z,32.00
2023-01-04T08:46:47.890Z,39.35
2023-01-04T08:47:50.640Z,30.23
2023-01-04T08:48:53.419Z,29.42
2023-01-04T08:49:57.036Z,25.90
2023-01-04T08:51:05.730Z,32.03
2023-01-04T08:52:09.323Z,29.30
2023-01-04T08:53:12.994Z,28.55
2023-01-04T08:54:15.966Z,25.00
2023-01-04T08:55:23.135Z,28.00
2023-01-04T08:56:26.276Z,26.67
2023-01-04T08:57:29.116Z,29.35
2023-01-04T08:58:32.739Z,29.33
2023-01-04T08:59:35.577Z,25.58
2023-01-04T09:00:38.239Z,25.23
2023-01-04T09:01:41.656Z,23.63
2023-01-04T09:02:44.672Z,21.10
2023-01-04T09:03:47.537Z,21.63
2023-01-04T09:04:51.290Z,23.50
2023-01-04T09:05:54.259Z,28.20
2023-01-04T09:06:57.447Z,26.38
2023-01-04T09:08:00.995Z,28.92
2023-01-04T09:09:03.851Z,29.27
2023-01-04T09:10:07.125Z,28.83
2023-01-04T09:11:14.779Z,25.15
2023-01-04T09:12:17.738Z,25.30
2023-01-04T09:13:21.177Z,29.20
2023-01-04T09:14:24.052Z,22.08
2023-01-04T09:15:26.871Z,25.42
2023-01-04T09:16:29.692Z,22.83
2023-01-04T09:17:32.429Z,23.88
2023-01-04T09:18:35.514Z,26.98
2023-01-04T09:19:38.188Z,26.60
2023-01-04T09:20:41.334Z,26.15
2023-01-04T09:21:44.048Z,24.40
2023-01-04T09:22:46.907Z,25.15
2023-01-04T09:23:50.165Z,24.67
2023-01-04T09:24:54.061Z,26.17
2023-01-04T09:25:56.826Z,25.67
2023-01-04T09:26:59.823Z,23.70
2023-01-04T09:28:02.536Z,26.38
2023-01-04T09:29:06.792Z,30.80
2023-01-04T09:30:10.370Z,29.75
2023-01-04T09:31:18.681Z,20.33
2023-01-04T09:32:21.514Z,21.88
2023-01-04T09:33:41.306Z,33.13
2023-01-04T09:34:47.847Z,26.85
2023-01-04T09:35:50.630Z,31.52
2023-01-04T09:36:53.489Z,27.50
2023-01-04T09:37:56.510Z,31.30
2023-01-04T09:38:59.250Z,30.40
2023-01-04T09:40:02.130Z,29.63
2023-01-04T09:41:04.848Z,29.55
2023-01-04T09:42:38.197Z,34.38
2023-01-04T09:44:02.415Z,29.52
2023-01-04T09:45:26.924Z,25.23
2023-01-04T09:46:41.978Z,29.38
2023-01-04T09:48:01.448Z,23.30
2023-01-04T09:49:29.533Z,27.95
2023-01-04T09:50:35.667Z,21.58
2023-01-04T09:51:39.666Z,29.65
2023-01-04T09:53:23.747Z,26.08
2023-01-04T09:54:33.056Z,26.25
2023-01-04T09:55:41.247Z,23.45
2023-01-04T09:56:58.427Z,28.27
2023-01-04T09:58:14.187Z,22.98
2023-01-04T09:59:18.201Z,28.90
2023-01-04T10:00:40.210Z,22.00
2023-01-04T10:01:50.405Z,27.58
2023-01-04T10:03:03.540Z,27.67
2023-01-04T10:04:25.609Z,25.20
2023-01-04T10:05:32.605Z,23.35
2023-01-04T10:06:35.683Z,23.60
2023-01-04T10:07:38.475Z,30.63
2023-01-04T10:08:44.197Z,25.77
2023-01-04T10:09:46.947Z,25.30
2023-01-04T10:11:13.625Z,24.40
2023-01-04T10:12:43.811Z,22.38
2023-01-04T10:14:14.016Z,26.55
2023-01-04T10:15:31.954Z,24.27
2023-01-04T10:17:12.124Z,21.77
2023-01-04T10:21:18.717Z,30.23
2023-01-04T10:21:44.207Z,23.98
2023-01-04T10:23:11.873Z,27.50
2023-01-04T10:24:26.113Z,23.13
2023-01-04T10:25:54.934Z,26.13
2023-01-04T10:27:09.256Z,26.98
2023-01-04T10:28:43.481Z,30.10
2023-01-04T10:30:08.067Z,24.75
2023-01-04T10:31:39.929Z,28.75
2023-01-04T10:32:43.675Z,23.83
2023-01-04T10:33:51.297Z,23.60
2023-01-04T10:34:54.203Z,24.20
2023-01-04T10:35:57.668Z,22.65
2023-01-04T10:37:06.935Z,29.20
2023-01-04T10:38:17.856Z,20.90
2023-01-04T10:39:28.526Z,24.48
2023-01-04T10:40:39.493Z,23.27
2023-01-04T10:41:58.291Z,22.02
2023-01-04T10:43:25.394Z,21.13
2023-01-04T10:44:56.444Z,26.77
2023-01-04T10:47:22.441Z,25.02
2023-01-04T10:48:33.730Z,18.02
2023-01-04T10:50:09.410Z,23.40
2023-01-04T10:51:14.988Z,19.90
2023-01-04T10:52:52.302Z,25.63
2023-01-04T10:54:12.071Z,19.08
2023-01-04T10:55:29.145Z,20.90
2023-01-04T10:56:43.682Z,20.90
2023-01-04T10:57:59.548Z,18.33
2023-01-04T10:59:12.220Z,21.52
2023-01-04T11:00:19.950Z,22.00
2023-01-04T11:01:27.218Z,18.25
2023-01-04T11:02:35.804Z,21.27
2023-01-04T11:03:45.928Z,15.07
2023-01-04T11:05:00.477Z,15.48
2023-01-04T11:06:16.333Z,17.20
2023-01-04T11:07:26.197Z,17.70
2023-01-04T11:08:38.276Z,18.08
2023-01-04T11:09:46.279Z,20.88
2023-01-04T11:11:00.511Z,17.80
2023-01-04T11:12:03.593Z,19.17
2023-01-04T11:13:06.759Z,16.67
2023-01-04T11:14:10.372Z,19.20
2023-01-04T11:15:13.277Z,23.58
2023-01-04T11:16:16.195Z,17.65
2023-01-04T11:17:20.462Z,20.42
2023-01-04T11:18:23.281Z,19.30
2023-01-04T11:19:25.964Z,19.00
2023-01-04T11:20:37.690Z,18.38
2023-01-04T11:21:57.200Z,17.65
2023-01-04T11:23:07.672Z,20.92
2023-01-04T11:25:38.794Z,14.80
2023-01-04T11:26:43.865Z,18.88
2023-01-04T11:27:49.959Z,17.95
2023-01-04T11:28:56.385Z,19.67
2023-01-04T11:30:12.260Z,18.50
2023-01-04T11:31:30.821Z,16.75
2023-01-04T11:32:33.948Z,18.67
2023-01-04T11:33:53.046Z,22.83
2023-01-04T11:34:57.713Z,23.17
2023-01-04T11:36:01.608Z,16.80
2023-01-04T11:37:04.413Z,16.58
2023-01-04T11:38:11.254Z,19.67
2023-01-04T11:39:21.550Z,18.08
2023-01-04T11:40:25.707Z,19.25
2023-01-04T11:41:28.813Z,21.83
2023-01-04T11:42:31.764Z,17.40
2023-01-04T11:43:39.562Z,19.15
2023-01-04T11:44:42.314Z,17.88
2023-01-04T11:46:03.321Z,19.48
2023-01-04T11:47:19.433Z,21.38
2023-01-04T11:48:42.779Z,17.52
2023-01-04T11:49:46.303Z,20.58
2023-01-04T11:50:51.691Z,13.50
2023-01-04T11:51:54.444Z,18.02
2023-01-04T11:52:57.213Z,18.83
2023-01-04T11:54:20.239Z,18.98
2023-01-04T11:55:29.980Z,17.77
2023-01-04T11:56:35.579Z,15.85
2023-01-04T11:57:38.285Z,13.90
2023-01-04T11:58:42.495Z,18.85
2023-01-04T11:59:45.585Z,17.63
2023-01-04T12:00:55.842Z,16.77
2023-01-04T12:02:58.658Z,18.42
2023-01-04T12:03:45.314Z,16.40
2023-01-04T12:04:48.714Z,15.13
2023-01-04T12:05:51.832Z,15.93
2023-01-04T12:07:00.616Z,13.25
2023-01-04T12:08:03.738Z,16.58
2023-01-04T12:09:08.817Z,18.10
2023-01-04T12:10:22.013Z,15.90
2023-01-04T12:11:36.233Z,17.25
2023-01-04T12:12:39.423Z,15.77
2023-01-04T12:13:42.160Z,16.00
2023-01-04T12:14:49.066Z,20.13
2023-01-04T12:16:12.542Z,17.77
2023-01-04T12:17:29.283Z,14.25
2023-01-04T12:18:40.452Z,14.75
2023-01-04T12:19:44.753Z,11.68
2023-01-04T12:20:47.526Z,15.10
2023-01-04T12:21:53.348Z,12.57
2023-01-04T12:22:56.080Z,11.50
2023-01-04T12:23:58.832Z,18.25
2023-01-04T12:25:02.621Z,18.52
2023-01-04T12:26:05.625Z,14.05
2023-01-04T12:27:14.256Z,14.30
2023-01-04T12:28:35.558Z,11.55
2023-01-04T12:29:44.397Z,12.77
2023-01-04T12:30:47.286Z,13.48
2023-01-04T12:31:54.594Z,15.65
2023-01-04T12:32:57.320Z,17.00
2023-01-04T12:34:23.340Z,14.27
2023-01-04T12:35:57.816Z,11.80
2023-01-04T12:37:05.670Z,11.30
2023-01-04T12:38:10.706Z,16.50
2023-01-04T12:39:13.956Z,9.75
2023-01-04T12:40:44.649Z,15.48
2023-01-04T12:42:00.808Z,11.57
2023-01-04T12:43:16.059Z,11.77
2023-01-04T12:44:37.073Z,13.43
2023-01-04T12:45:40.232Z,12.70
2023-01-04T12:47:01.710Z,11.75
2023-01-04T12:48:45.947Z,10.50
2023-01-04T12:50:13.548Z,12.80
2023-01-04T12:51:31.462Z,15.95
2023-01-04T12:53:19.409Z,13.68
2023-01-04T12:54:32.300Z,11.57
2023-01-04T12:55:41.995Z,12.88
2023-01-04T12:57:17.203Z,13.38
2023-01-04T12:59:23.789Z,14.15
2023-01-04T13:00:09.576Z,12.45
2023-01-04T13:01:23.870Z,22.38
2023-01-04T13:02:30.695Z,12.55
2023-01-04T13:03:48.344Z,12.85
2023-01-04T13:05:16.983Z,11.85
2023-01-04T13:06:21.146Z,12.68
2023-01-04T13:07:33.429Z,12.48
2023-01-04T13:08:42.521Z,11.75
2023-01-04T13:09:55.221Z,12.45
2023-01-04T13:10:58.009Z,10.82
2023-01-04T13:12:26.271Z,10.18
2023-01-04T13:14:02.083Z,14.10
2023-01-04T13:15:14.475Z,14.15
2023-01-04T13:16:28.599Z,10.80
2023-01-04T13:17:32.163Z,13.40
2023-01-04T13:18:51.544Z,15.95
2023-01-04T13:19:54.721Z,14.38
2023-01-04T13:20:57.746Z,13.35
2023-01-04T13:22:00.585Z,13.02
2023-01-04T13:23:03.330Z,13.23
2023-01-04T13:24:30.488Z,14.50
2023-01-04T13:25:35.886Z,12.50
2023-01-04T13:26:45.930Z,15.90
2023-01-04T13:28:00.045Z,15.57
2023-01-04T13:29:30.361Z,10.77
2023-01-04T13:30:34.722Z,19.27
2023-01-04T13:31:52.643Z,14.48
2023-01-04T13:33:24.798Z,12.50
2023-01-04T13:34:24.369Z,10.68
2023-01-04T13:35:27.131Z,13.05
2023-01-04T13:36:29.961Z,17.88
2023-01-04T13:37:43.869Z,18.08
2023-01-04T13:38:47.216Z,19.48
2023-01-04T13:39:53.177Z,11.63
2023-01-04T13:40:56.006Z,12.48
2023-01-04T13:41:59.683Z,14.43
2023-01-04T13:43:21.180Z,13.35
2023-01-04T13:46:15.883Z,13.57
2023-01-04T13:47:18.969Z,17.48
2023-01-04T13:48:23.317Z,14.68
2023-01-04T13:49:26.133Z,14.43
2023-01-04T13:50:34.497Z,14.45
2023-01-04T13:51:38.380Z,18.67
2023-01-04T13:52:56.361Z,20.08
2023-01-04T13:54:04.855Z,15.02
2023-01-04T13:55:27.485Z,17.67
2023-01-04T13:56:32.931Z,16.83
2023-01-04T13:57:35.805Z,17.27
2023-01-04T13:58:38.692Z,15.13
2023-01-04T13:59:41.396Z,16.20
2023-01-04T14:00:46.697Z,29.35
2023-01-04T14:01:49.762Z,17.20
2023-01-04T14:03:10.800Z,17.40
2023-01-04T14:05:27.708Z,18.70
2023-01-04T14:06:44.735Z,21.15
2023-01-04T14:07:47.575Z,15.55
2023-01-04T14:09:13.817Z,17.38
2023-01-04T14:10:18.348Z,14.25
2023-01-04T14:11:48.467Z,13.90
2023-01-04T14:12:51.167Z,18.67
2023-01-04T14:13:53.905Z,17.15
2023-01-04T14:14:58.780Z,25.48
2023-01-04T14:16:14.925Z,17.00
2023-01-04T14:17:43.065Z,13.75
2023-01-04T14:18:49.140Z,26.55
2023-01-04T14:20:00.524Z,12.38
2023-01-04T14:21:03.356Z,16.75
2023-01-04T14:22:21.640Z,16.13
2023-01-04T14:23:35.744Z,24.83
2023-01-04T14:26:01.768Z,14.38
2023-01-04T14:27:37.677Z,16.95
2023-01-04T14:28:49.132Z,18.83
2023-01-04T14:29:52.590Z,15.05
2023-01-04T14:31:01.466Z,16.02
2023-01-04T14:32:08.465Z,14.43
2023-01-04T14:33:27.872Z,19.80
2023-01-04T14:34:30.741Z,16.20
2023-01-04T14:35:34.615Z,24.30
2023-01-04T14:36:39.568Z,19.35
2023-01-04T14:37:42.391Z,15.95
2023-01-04T14:39:12.793Z,18.45
2023-01-04T14:40:24.352Z,20.02
2023-01-04T14:41:34.040Z,19.85
2023-01-04T14:42:36.815Z,15.90
2023-01-04T14:43:53.679Z,24.25
2023-01-04T14:44:56.471Z,17.50
2023-01-04T14:45:59.516Z,17.45
2023-01-04T14:47:06.259Z,20.17
2023-01-04T14:48:10.878Z,22.10
2023-01-04T14:49:14.450Z,21.15
2023-01-04T14:50:20.693Z,20.00
2023-01-04T14:51:40.787Z,18.42
2023-01-04T14:52:51.495Z,15.90